Latest Weather Observations for Delamere

IDD60801

Issued at 10:31 am CST Wednesday 25 January 2017 (issued every 30 minutes, with the page automatically refreshed every 10 minutes)

About weather observations | Map of weather stations | Latest weather observations for NT | Other Formats
Station Details ID: 014949 Name: DELAMERE WEAPONS RANGE Lat: -15.74 Lon: 131.92 Height: 221.0 m
Data from the previous 72 hours. | See also: Recent months at Delamere
Date/Time
CST
Temp
°C
App
Temp
°C
Dew
Point
°C
Rel
Hum
%
Delta-T
°C
Wind Press
QNH
hPa
Press
MSL
hPa
Rain since
9am
mm
Dir  Spd
km/h
Gust
km/h
Spd
kts
Gust
kts
25/10:30am 26.0 28.2 23.9 88 1.5 NNE 19 28 10 15 1007.7 - 0.0
25/10:00am 25.1 27.7 23.9 93 0.8 NNE 17 26 9 14 1007.9 - 0.0
25/09:30am 24.5 27.5 24.0 97 0.3 NNE 15 24 8 13 1007.9 - 0.0
25/09:00am 24.0 26.7 23.5 97 0.3 NNE 15 22 8 12 1008.0 1006.3 68.6
25/08:30am 23.9 27.3 23.4 97 0.3 NNE 11 17 6 9 1007.8 - 68.6
25/08:00am 23.9 26.2 23.4 97 0.3 NNE 17 26 9 14 1007.6 - 68.6
25/07:30am 23.7 27.1 23.4 98 0.2 NE 11 17 6 9 1007.1 - 68.6
25/07:00am 23.5 26.4 23.2 98 0.2 NNE 13 20 7 11 1006.9 - 68.6
25/06:30am 23.5 27.2 23.2 98 0.2 NNE 9 15 5 8 1006.6 - 68.4
25/06:00am 23.5 27.2 23.2 98 0.2 NNE 9 13 5 7 1006.1 1004.4 68.4
25/05:30am 23.6 27.0 23.3 98 0.2 NNE 11 15 6 8 1005.6 - 68.4
25/05:00am 23.7 27.8 23.2 97 0.3 NNE 7 9 4 5 1005.4 - 68.4
25/04:30am 23.6 27.7 23.3 98 0.2 NNE 7 11 4 6 1005.2 - 68.4
25/04:26am 23.6 27.7 23.3 98 0.2 NNE 7 11 4 6 1005.2 - 68.4
25/04:00am 23.5 27.6 23.0 97 0.3 NNE 6 7 3 4 1005.2 - 68.4
25/03:30am 23.5 27.3 22.8 96 0.5 N 7 11 4 6 1005.2 - 68.2
25/03:00am 23.8 27.9 23.3 97 0.3 N 7 9 4 5 1005.1 1003.4 68.2
25/02:41am 23.9 28.1 23.4 97 0.3 N 7 7 4 4 1005.3 - 68.0
25/02:30am 23.9 28.1 23.4 97 0.3 N 7 11 4 6 1005.4 - 68.0
25/02:00am 24.0 27.8 23.5 97 0.3 N 9 13 5 7 1005.6 - 68.0
25/01:30am 23.8 28.0 23.5 98 0.2 N 7 9 4 5 1005.8 - 68.0
25/01:00am 23.8 27.6 23.5 98 0.2 N 9 11 5 6 1006.0 - 67.8
25/12:30am 23.7 27.5 23.4 98 0.2 N 9 11 5 6 1006.4 - 67.6
25/12:20am 23.7 27.9 23.4 98 0.2 N 7 11 4 6 1006.5 - 67.6
25/12:00am 23.6 27.7 23.3 98 0.2 N 7 9 4 5 1006.7 1005.0 67.6
 
Date/Time
CST
Temp
°C
App
Temp
°C
Dew
Point
°C
Rel
Hum
%
Delta-T
°C
Wind Press
QNH
hPa
Press
MSL
hPa
Rain since
9am
mm
Dir  Spd
km/h
Gust
km/h
Spd
kts
Gust
kts
24/11:30pm 23.6 27.7 23.3 98 0.2 N 7 11 4 6 1006.9 - 66.4
24/11:12pm 23.6 27.0 23.3 98 0.2 N 11 15 6 8 1007.0 - 65.2
24/11:00pm 23.5 26.8 23.2 98 0.2 NNW 11 15 6 8 1007.0 - 63.4
24/10:30pm 23.5 26.3 23.0 97 0.3 N 13 17 7 9 1006.9 - 54.4
24/10:00pm 24.0 27.8 23.5 97 0.3 NNE 9 11 5 6 1006.7 - 42.8
24/09:43pm 24.2 28.2 23.7 97 0.3 NE 9 13 5 7 1006.6 - 34.8
24/09:30pm 24.2 28.2 23.7 97 0.3 NNE 9 11 5 6 1006.4 - 33.6
24/09:00pm 24.4 28.0 23.7 96 0.5 N 11 15 6 8 1006.0 1004.3 32.6
24/08:30pm 24.3 27.3 23.4 95 0.6 NNE 13 17 7 9 1005.8 - 30.6
24/08:00pm 25.6 31.0 23.8 90 1.2 W 2 13 1 7 1005.4 - 29.2
24/07:30pm 26.1 32.0 24.1 89 1.4 CALM 0 0 0 0 1004.9 - 29.2
24/07:00pm 26.2 32.0 23.9 87 1.6 CALM 0 0 0 0 1004.3 - 29.2
24/06:30pm 26.3 30.7 23.4 84 2.0 WNW 6 7 3 4 1003.9 - 29.2
24/06:00pm 26.4 30.2 23.5 84 2.0 NNW 9 11 5 6 1003.3 1001.6 29.2
24/05:30pm 26.5 30.9 23.8 85 1.9 NW 7 9 4 5 1002.9 - 29.2
24/05:00pm 26.2 29.9 23.3 84 2.0 WNW 9 15 5 8 1002.7 - 29.2
24/04:40pm 26.2 30.2 23.7 86 1.7 WNW 9 13 5 7 1002.7 - 29.2
24/04:30pm 26.2 30.5 23.7 86 1.7 W 7 13 4 7 1002.8 - 29.2
24/04:00pm 26.4 30.6 23.5 84 2.0 WNW 7 11 4 6 1003.2 - 29.2
24/03:30pm 26.3 30.2 23.6 85 1.9 NW 9 13 5 7 1003.4 - 29.2
24/03:09pm 26.2 30.2 23.7 86 1.7 WNW 9 13 5 7 1003.5 - 29.2
24/03:00pm 26.1 29.8 23.2 84 2.0 WNW 9 15 5 8 1003.6 1001.9 29.2
24/02:30pm 25.9 29.9 23.8 88 1.5 WNW 9 13 5 7 1004.1 - 29.2
24/02:00pm 25.2 28.6 23.4 90 1.2 WNW 11 17 6 9 1004.3 - 29.2
24/01:54pm 25.2 28.3 23.6 91 1.1 WNW 13 19 7 10 1004.4 - 29.2
24/01:30pm 25.0 28.3 23.8 93 0.8 WNW 13 20 7 11 1004.9 - 29.2
24/01:28pm 25.0 28.4 24.0 94 0.7 WNW 13 20 7 11 1004.9 - 29.2
24/01:08pm 24.7 28.3 23.8 95 0.6 WNW 11 19 6 10 1005.3 - 29.2
24/01:00pm 24.7 28.3 23.8 95 0.6 WNW 11 15 6 8 1005.4 - 29.2
24/12:30pm 24.6 28.1 23.6 94 0.7 WNW 11 15 6 8 1005.9 - 29.0
24/12:11pm 24.9 28.7 24.0 95 0.6 NW 11 15 6 8 1006.1 - 29.0
24/12:09pm 24.7 28.3 23.8 95 0.6 NW 11 17 6 9 1006.1 - 29.0
24/12:00pm 24.8 28.5 23.9 95 0.6 WNW 11 17 6 9 1006.2 1004.5 28.8
24/11:49am 24.6 27.8 23.7 95 0.6 WNW 13 19 7 10 1006.3 - 28.6
24/11:30am 24.3 27.3 23.4 95 0.6 WNW 13 19 7 10 1006.4 - 28.6
24/11:09am 24.2 27.3 23.5 96 0.5 W 13 19 7 10 1006.4 - 28.6
24/11:00am 24.2 27.8 23.7 97 0.3 W 11 19 6 10 1006.5 - 28.6
24/10:33am 24.0 27.5 23.5 97 0.3 W 11 15 6 8 1006.6 - 22.8
24/10:30am 24.0 27.8 23.5 97 0.3 W 9 15 5 8 1006.7 - 22.0
24/10:24am 24.1 28.5 23.8 98 0.2 W 7 9 4 5 1006.7 - 19.8
24/10:00am 23.8 27.5 23.3 97 0.3 WNW 9 11 5 6 1006.8 - 13.8
24/09:30am 23.5 27.1 23.0 97 0.3 W 9 15 5 8 1006.7 - 6.4
24/09:00am 23.5 27.1 23.0 97 0.3 WSW 9 13 5 7 1006.9 1005.2 24.4
24/08:30am 23.7 26.6 23.2 97 0.3 SW 13 20 7 11 1006.5 - 17.8
24/08:00am 24.3 28.3 23.8 97 0.3 WSW 9 13 5 7 1006.3 - 9.8
24/07:30am 24.3 28.9 23.8 97 0.3 W 6 7 3 4 1006.0 - 6.6
24/07:00am 24.2 29.1 23.7 97 0.3 W 4 6 2 3 1005.9 - 5.2
24/06:30am 24.1 29.7 23.6 97 0.3 CALM 0 0 0 0 1005.6 - 5.0
24/06:00am 24.0 28.4 23.5 97 0.3 W 6 11 3 6 1005.1 1003.4 5.0
24/05:30am 23.8 27.5 23.3 97 0.3 W 9 15 5 8 1004.6 - 5.0
24/05:00am 23.6 26.7 22.9 96 0.5 W 11 15 6 8 1004.5 - 5.0
24/04:38am 23.7 27.3 23.0 96 0.5 W 9 11 5 6 1004.4 - 5.0
24/04:30am 23.7 27.6 23.0 96 0.5 W 7 11 4 6 1004.4 - 5.0
24/04:20am 23.8 27.8 23.1 96 0.5 WSW 7 13 4 7 1004.4 - 5.0
24/04:00am 24.0 27.7 23.3 96 0.5 WSW 9 15 5 8 1004.5 - 5.0
24/03:30am 23.9 28.0 23.2 96 0.5 W 7 9 4 5 1004.5 - 5.0
24/03:26am 23.9 28.0 23.2 96 0.5 W 7 13 4 7 1004.5 - 5.0
24/03:24am 23.9 28.0 23.2 96 0.5 W 7 13 4 7 1004.5 - 5.0
24/03:00am 24.0 29.4 23.3 96 0.5 CALM 0 0 0 0 1004.3 1002.7 5.0
24/02:30am 24.3 28.6 23.6 96 0.5 NW 7 11 4 6 1004.5 - 5.0
24/02:00am 24.3 28.2 23.6 96 0.5 N 9 11 5 6 1004.4 - 5.0
24/01:30am 24.6 28.6 23.7 95 0.6 NNW 9 13 5 7 1005.3 - 5.0
24/01:00am 24.7 28.8 24.0 96 0.5 N 9 11 5 6 1005.7 - 5.0
24/12:32am 25.1 29.9 24.4 96 0.5 N 7 9 4 5 1006.4 - 4.8
24/12:30am 24.9 29.5 24.2 96 0.5 N 7 9 4 5 1006.5 - 4.8
24/12:00am 25.0 29.6 24.1 95 0.6 N 7 9 4 5 1007.2 1005.5 4.6
 
Date/Time
CST
Temp
°C
App
Temp
°C
Dew
Point
°C
Rel
Hum
%
Delta-T
°C
Wind Press
QNH
hPa
Press
MSL
hPa
Rain since
9am
mm
Dir  Spd
km/h
Gust
km/h
Spd
kts
Gust
kts
23/11:30pm 25.1 29.9 24.2 95 0.6 N 6 9 3 5 1007.4 - 4.6
23/11:00pm 25.0 29.2 24.1 95 0.6 N 9 11 5 6 1007.4 - 4.4
23/10:30pm 25.5 30.9 24.5 94 0.7 NNW 4 7 2 4 1007.7 - 2.4
23/10:00pm 25.5 30.5 24.5 94 0.7 N 6 9 3 5 1007.3 - 2.2
23/09:44pm 25.3 30.1 24.1 93 0.8 N 6 9 3 5 1006.9 - 2.0
23/09:30pm 25.2 30.9 23.8 92 1.0 CALM 0 0 0 0 1006.9 - 1.8
23/09:00pm 25.2 29.7 24.0 93 0.8 SW 7 9 4 5 1006.7 1005.0 1.0
23/08:51pm 25.1 29.4 23.7 92 1.0 WSW 7 11 4 6 1006.6 - 0.6
23/08:30pm 25.4 29.6 23.5 89 1.3 NNW 7 9 4 5 1006.3 - 0.2
23/08:00pm 24.8 28.4 23.0 90 1.2 E 9 13 5 7 1005.4 - 0.2
23/07:30pm 24.7 29.9 23.5 93 0.8 WSW 2 6 1 3 1004.3 - 0.2
23/07:00pm 24.3 28.3 22.7 91 1.1 S 6 11 3 6 1003.3 - 0.2
23/06:30pm 24.0 25.0 21.7 87 1.5 SSW 19 35 10 19 1003.6 - 0.2
23/06:00pm 26.8 26.4 23.1 80 2.5 SSE 30 46 16 25 1003.6 1001.9 0.0
23/05:30pm 29.8 30.2 21.7 61 5.5 SE 22 35 12 19 1002.1 - 0.0
23/05:00pm 32.2 35.6 23.4 59 6.1 S 11 15 6 8 1002.3 - 0.0
23/04:30pm 32.9 36.5 23.0 56 6.9 S 9 13 5 7 1001.4 - 0.0
23/04:00pm 33.0 36.7 23.9 59 6.4 S 11 17 6 9 1001.8 - 0.0
23/03:30pm 33.0 35.8 23.6 57 6.6 SW 15 20 8 11 1002.3 - 0.0
23/03:00pm 32.5 35.5 23.4 58 6.4 SSW 13 24 7 13 1002.8 1001.1 0.0
23/02:30pm 32.6 35.5 24.4 62 5.8 S 17 22 9 12 1003.6 - 0.0
23/02:00pm 31.6 34.6 23.4 61 5.7 SW 13 22 7 12 1004.1 - 0.0
23/01:30pm 31.2 33.6 23.6 64 5.3 SSW 17 20 9 11 1004.6 - 0.0
23/01:00pm 30.6 33.7 23.5 66 4.9 SSW 13 20 7 11 1005.3 - 0.0
23/12:30pm 30.4 33.2 23.6 67 4.7 S 15 20 8 11 1005.7 - 0.0
23/12:00pm 29.9 33.5 24.3 72 3.9 SW 13 20 7 11 1006.2 1004.5 0.0
23/11:30am 29.1 31.4 23.5 72 3.9 SSW 17 22 9 12 1006.5 - 0.0
23/11:00am 28.6 31.4 23.7 75 3.4 SSW 15 26 8 14 1006.8 - 0.0
23/10:30am 28.4 31.9 24.2 78 2.9 SW 13 20 7 11 1007.3 - 0.0
23/10:27am 28.1 30.9 23.7 77 3.1 SW 15 20 8 11 1007.3 - 0.0
23/10:12am 28.0 31.3 23.8 78 2.9 SW 13 20 7 11 1007.2 - 0.0
23/10:00am 27.5 31.3 24.1 82 2.4 SW 11 15 6 8 1007.4 - 0.0
23/09:57am 27.4 30.7 23.8 81 2.5 WSW 13 19 7 10 1007.4 - 0.0
23/09:30am 27.0 29.9 23.9 83 2.1 SW 15 20 8 11 1007.5 - 0.0
23/09:00am 26.5 29.4 23.8 85 1.9 SW 15 19 8 10 1007.7 1006.0 0.0
23/08:30am 26.1 30.2 24.0 88 1.5 WSW 9 17 5 9 1007.6 - 0.0
23/08:20am 25.8 29.4 23.8 89 1.4 SW 11 13 6 7 1007.6 - 0.0
23/08:00am 25.5 29.2 23.9 91 1.1 WSW 11 19 6 10 1007.5 - 0.0
23/07:43am 25.3 28.9 23.7 91 1.1 WSW 11 17 6 9 1007.4 - 0.0
23/07:30am 25.1 29.6 23.9 93 0.8 WSW 7 13 4 7 1007.4 - 0.0
23/07:00am 24.8 29.2 23.8 94 0.7 WSW 7 13 4 7 1007.3 - 0.0
23/06:30am 24.7 27.9 23.7 94 0.7 W 13 19 7 10 1007.0 - 0.0
23/06:00am 24.7 28.7 23.7 94 0.7 W 9 13 5 7 1006.6 1004.9 0.0
23/05:30am 24.7 28.5 23.5 93 0.8 W 9 15 5 8 1005.9 - 0.0
23/05:00am 24.7 30.4 23.8 95 0.6 CALM 0 0 0 0 1005.2 - 0.0
23/04:53am 24.6 30.3 23.7 95 0.6 CALM 0 0 0 0 1005.0 - 0.0
23/04:30am 24.6 30.2 23.6 94 0.7 CALM 0 0 0 0 1004.7 - 0.0
23/04:00am 24.6 30.1 23.4 93 0.8 CALM 0 0 0 0 1004.5 - 0.0
23/03:30am 24.9 30.2 23.7 93 0.8 WNW 2 7 1 4 1005.1 - 0.0
23/03:00am 24.9 30.5 23.5 92 1.0 CALM 0 0 0 0 1005.5 1003.8 0.0
23/02:30am 25.0 29.2 23.4 91 1.1 WNW 7 9 4 5 1005.8 - 0.0
23/02:00am 25.1 29.2 23.3 90 1.2 WNW 7 11 4 6 1006.4 - 0.0
23/01:30am 25.3 29.0 23.2 88 1.4 W 9 13 5 7 1006.7 - 0.0
23/01:00am 25.5 29.2 23.2 87 1.6 W 9 15 5 8 1007.1 - 0.0
23/12:30am 25.6 29.9 24.2 92 1.0 NW 9 13 5 7 1007.4 - 0.0
23/12:00am 25.6 30.0 23.8 90 1.2 W 7 11 4 6 1007.4 1005.7 0.0
 
Date/Time
CST
Temp
°C
App
Temp
°C
Dew
Point
°C
Rel
Hum
%
Delta-T
°C
Wind Press
QNH
hPa
Press
MSL
hPa
Rain since
9am
mm
Dir  Spd
km/h
Gust
km/h
Spd
kts
Gust
kts
22/11:30pm 25.7 30.0 23.7 89 1.4 W 7 11 4 6 1007.9 - 0.0
22/11:00pm 25.8 30.1 23.7 88 1.4 NW 7 11 4 6 1007.9 - 0.0
22/10:30pm 25.8 30.0 23.5 87 1.6 NNW 7 11 4 6 1007.9 - 0.0
22/10:00pm 26.1 29.4 23.2 84 2.0 N 11 15 6 8 1007.5 - 0.0
22/09:30pm 26.2 29.2 23.3 84 2.0 N 13 19 7 10 1007.2 - 0.0
22/09:00pm 26.8 29.1 22.8 79 2.7 N 15 24 8 13 1007.0 1005.3 0.0
22/08:30pm 27.1 30.1 23.3 80 2.6 NNW 13 19 7 10 1007.2 - 0.0
22/08:00pm 27.6 30.8 23.0 76 3.2 NW 11 15 6 8 1006.9 - 0.0
22/07:30pm 27.7 31.5 23.5 78 2.9 N 9 11 5 6 1006.0 - 0.0
22/07:00pm 27.8 32.1 23.6 78 2.9 W 7 11 4 6 1005.8 - 0.0
22/06:30pm 28.1 32.2 23.0 74 3.5 W 6 7 3 4 1005.6 - 0.0
22/06:00pm 28.3 31.9 22.3 70 4.1 SW 7 13 4 7 1005.5 1003.8 0.0
22/05:30pm 28.3 31.2 22.5 71 4.0 WSW 11 20 6 11 1005.5 - 0.0
22/05:00pm 30.0 34.3 24.2 71 4.1 S 9 15 5 8 1004.4 - 0.0
22/04:30pm 32.4 36.7 23.6 59 6.2 SW 7 11 4 6 1004.2 - 0.0
22/04:00pm 33.1 38.9 24.6 61 6.0 SW 2 7 1 4 1004.0 - 0.0
22/03:30pm 31.1 35.4 23.7 64 5.2 S 7 9 4 5 1004.2 - 0.0
22/03:00pm 30.4 35.0 24.1 69 4.4 S 7 9 4 5 1004.3 1002.7 0.0
22/02:30pm 30.5 35.3 24.4 70 4.3 S 7 9 4 5 1005.1 - 0.0
22/02:00pm 30.4 32.9 23.1 65 5.0 SSW 15 19 8 10 1005.6 - 0.0
22/01:30pm 31.5 35.3 24.1 65 5.2 S 11 20 6 11 1006.3 - 0.0
22/01:00pm 32.3 35.8 24.9 65 5.3 SSW 15 24 8 13 1006.8 - 0.0
22/12:30pm 31.2 33.9 24.1 66 5.0 SSW 17 26 9 14 1007.6 - 0.0
22/12:00pm 31.0 34.6 24.4 68 4.7 SW 13 19 7 10 1008.3 1006.7 0.0
22/11:30am 30.3 33.9 24.4 70 4.1 SW 13 20 7 11 1008.9 - 0.0
22/11:00am 29.9 33.3 24.1 71 4.1 SW 13 20 7 11 1009.2 - 0.0

Other Formats:

Comma delimited format used in spreadsheet applications
http://www.bom.gov.au/fwo/IDD60801/IDD60801.94225.axf

JavaScript Object Notation format (JSON) in row-major order
http://www.bom.gov.au/fwo/IDD60801/IDD60801.94225.json